Time;durP1;ratioP1;P1;durP2;ratioP2;P2;SDS_P1;SDS_P2;PMS_P1;PMS_P2;Temp;Humidity;BMP_temperature;BMP_pressure;BME280_temperature;BME280_humidity;BME280_pressure;Samples;Min_cycle;Max_cycle;Signal;HPM_P1;HPM_P2
2024/05/07 00:00:55;;;;;;;7.90;2.60;;;;;;;10.97;100.00;97190.91;5543891;25;20498;-66
2024/05/07 00:03:21;;;;;;;6.30;2.90;;;;;;;11.02;100.00;97181.13;5543644;25;20761;-65
2024/05/07 00:05:46;;;;;;;6.57;2.80;;;;;;;11.01;100.00;97184.66;5545423;25;20430;-66
2024/05/07 00:10:06;;;;;;;6.60;2.40;;;;;;;11.02;100.00;97180.28;5583030;25;20531;-66
2024/05/07 00:12:32;;;;;;;6.60;2.50;;;;;;;11.03;100.00;97164.63;5543894;25;20296;-65
2024/05/07 00:14:58;;;;;;;5.90;2.90;;;;;;;11.02;100.00;97170.72;5543990;25;20568;-66
2024/05/07 00:17:23;;;;;;;6.28;2.80;;;;;;;11.05;100.00;97173.19;5543915;25;20229;-66
2024/05/07 00:19:49;;;;;;;6.23;2.87;;;;;;;10.98;100.00;97168.38;5543657;25;20773;-66
2024/05/07 00:22:15;;;;;;;7.03;2.67;;;;;;;10.93;100.00;97165.97;5543693;25;20677;-66
2024/05/07 00:24:40;;;;;;;5.90;2.50;;;;;;;10.90;100.00;97172.19;5543566;25;20224;-66
2024/05/07 00:27:06;;;;;;;6.97;2.87;;;;;;;10.93;100.00;97168.56;5543701;25;20221;-66
2024/05/07 00:29:31;;;;;;;6.10;2.60;;;;;;;10.87;100.00;97169.72;5543584;25;20573;-66
2024/05/07 00:34:03;;;;;;;5.82;2.50;;;;;;;10.84;100.00;97164.69;5583074;25;20443;-66
2024/05/07 00:36:29;;;;;;;6.83;2.80;;;;;;;10.86;100.00;97174.97;5513036;25;20233;-66
2024/05/07 00:38:54;;;;;;;6.00;2.80;;;;;;;10.86;100.00;97174.97;5545723;25;20615;-66
2024/05/07 00:41:20;;;;;;;6.37;2.70;;;;;;;10.75;100.00;97176.38;5545587;25;20657;-66
2024/05/07 00:43:45;;;;;;;6.37;2.57;;;;;;;10.75;100.00;97175.50;5545547;25;20634;-66
2024/05/07 00:46:12;;;;;;;6.07;2.70;;;;;;;10.64;100.00;97181.25;5545374;25;20330;-65
2024/05/07 00:48:37;;;;;;;5.95;2.45;;;;;;;10.46;100.00;97182.09;5512780;25;20217;-65
2024/05/07 00:51:03;;;;;;;6.00;2.50;;;;;;;10.37;100.00;97198.97;5512585;25;20300;-65
2024/05/07 00:53:28;;;;;;;5.90;2.63;;;;;;;10.30;100.00;97193.16;5512626;25;20247;-65
2024/05/07 00:58:03;;;;;;;5.65;2.42;;;;;;;10.20;100.00;97189.31;5583291;25;20530;-65
2024/05/07 01:00:29;;;;;;;6.43;2.90;;;;;;;10.15;100.00;97202.50;5546044;25;20291;-66
2024/05/07 01:02:54;;;;;;;6.63;2.93;;;;;;;10.14;100.00;97197.38;5545608;25;20723;-65
2024/05/07 01:05:20;;;;;;;6.10;2.70;;;;;;;10.21;100.00;97193.59;5543930;25;20240;-65
2024/05/07 01:07:45;;;;;;;7.37;2.60;;;;;;;10.26;100.00;97191.63;5545481;25;20251;-65
2024/05/07 01:10:11;;;;;;;6.07;2.33;;;;;;;10.33;100.00;97185.28;5543771;25;20653;-65
2024/05/07 01:12:37;;;;;;;5.87;2.53;;;;;;;10.17;100.00;97184.28;5543734;25;20255;-65
2024/05/07 01:15:02;;;;;;;6.40;2.90;;;;;;;10.14;100.00;97189.59;5543827;25;20217;-65
2024/05/07 01:17:28;;;;;;;7.67;2.60;;;;;;;10.34;100.00;97184.34;5545468;25;20804;-65
2024/05/07 01:22:04;;;;;;;6.07;2.50;;;;;;;10.49;100.00;97166.38;5545399;25;20687;-65
2024/05/07 01:24:29;;;;;;;6.90;2.60;;;;;;;10.38;100.00;97164.28;5508776;26;20593;-65
2024/05/07 01:26:55;;;;;;;6.33;2.90;;;;;;;10.30;100.00;97164.63;5476084;26;20369;-66
2024/05/07 01:29:20;;;;;;;6.13;2.67;;;;;;;10.01;100.00;97172.91;5508398;26;20214;-66
2024/05/07 01:31:46;;;;;;;6.87;2.73;;;;;;;9.89;100.00;97187.25;5508569;26;20214;-66
2024/05/07 01:34:12;;;;;;;5.70;2.70;;;;;;;9.87;100.00;97194.28;5476093;26;20693;-66
2024/05/07 01:36:38;;;;;;;5.90;2.40;;;;;;;9.93;100.00;97196.56;5475930;26;20322;-66
2024/05/07 01:39:03;;;;;;;7.05;2.95;;;;;;;10.01;100.00;97186.72;5508286;26;20261;-66
2024/05/07 01:41:29;;;;;;;6.13;2.50;;;;;;;10.10;100.00;97186.31;5476051;26;20687;-66
2024/05/07 01:45:55;;;;;;;6.97;2.63;;;;;;;10.18;100.00;97183.34;5583039;25;20526;-65
2024/05/07 01:48:21;;;;;;;6.63;3.00;;;;;;;10.22;100.00;97182.28;5545591;25;20788;-66
2024/05/07 01:50:47;;;;;;;6.57;3.13;;;;;;;10.19;100.00;97180.69;5543808;25;20224;-65
2024/05/07 01:53:12;;;;;;;6.47;2.77;;;;;;;10.27;100.00;97188.09;5545589;25;20689;-65
2024/05/07 01:55:39;;;;;;;6.97;2.60;;;;;;;10.27;100.00;97177.72;5543775;25;20217;-65
2024/05/07 01:58:04;;;;;;;6.78;2.60;;;;;;;10.25;100.00;97183.91;5545580;25;20689;-65
2024/05/07 02:00:30;;;;;;;6.87;2.67;;;;;;;10.27;100.00;97180.31;5543733;25;20248;-65
2024/05/07 02:02:55;;;;;;;6.83;2.80;;;;;;;10.27;100.00;97182.91;5543681;25;20217;-65
2024/05/07 02:05:21;;;;;;;6.63;2.70;;;;;;;10.31;100.00;97171.50;5543516;25;20651;-65
2024/05/07 02:09:53;;;;;;;5.90;2.60;;;;;;;10.43;100.00;97170.09;5583057;25;20627;-65
2024/05/07 02:12:18;;;;;;;6.63;2.70;;;;;;;10.41;100.00;97164.16;5545727;25;20666;-66
2024/05/07 02:14:44;;;;;;;6.43;2.93;;;;;;;10.28;100.00;97171.63;5545593;25;20579;-65
2024/05/07 02:17:09;;;;;;;6.87;2.73;;;;;;;10.35;100.00;97170.47;5545599;25;20728;-65
2024/05/07 02:19:35;;;;;;;5.87;2.60;;;;;;;10.31;100.00;97173.28;5544104;25;20228;-66
2024/05/07 02:22:00;;;;;;;6.87;3.03;;;;;;;10.23;100.00;97177.97;5545557;25;20224;-66
2024/05/07 02:24:26;;;;;;;6.40;2.70;;;;;;;10.24;100.00;97177.91;5543839;25;20256;-66
2024/05/07 02:26:51;;;;;;;6.60;2.80;;;;;;;10.24;100.00;97175.28;5545466;25;20217;-65
2024/05/07 02:29:17;;;;;;;7.03;2.60;;;;;;;10.26;100.00;97175.19;5543518;25;20221;-66
2024/05/07 02:33:50;;;;;;;7.00;2.97;;;;;;;10.09;100.00;97173.38;5508314;25;20527;-66
2024/05/07 02:36:16;;;;;;;6.17;2.83;;;;;;;10.09;100.00;97171.63;5508482;26;20786;-66
2024/05/07 02:38:41;;;;;;;6.70;2.70;;;;;;;9.99;100.00;97176.41;5506632;26;20248;-66
2024/05/07 02:41:07;;;;;;;5.90;2.70;;;;;;;9.98;100.00;97173.88;5508549;26;20318;-66
2024/05/07 02:43:32;;;;;;;6.13;2.90;;;;;;;9.97;100.00;97162.66;5476236;26;20305;-65
2024/05/07 02:45:58;;;;;;;6.00;2.87;;;;;;;9.90;100.00;97165.63;5508440;26;20222;-65
2024/05/07 02:48:23;;;;;;;6.10;2.83;;;;;;;9.91;100.00;97165.53;5508378;26;20317;-66
2024/05/07 02:50:49;;;;;;;6.40;2.60;;;;;;;9.97;100.00;97164.44;5508452;26;20670;-65
2024/05/07 02:53:15;;;;;;;5.80;2.50;;;;;;;9.99;100.00;97162.59;5508435;25;20222;-65
2024/05/07 02:57:48;;;;;;;6.35;2.80;;;;;;;9.95;100.00;97158.44;5582975;25;20447;-65
2024/05/07 03:00:14;;;;;;;6.37;2.97;;;;;;;9.99;100.00;97163.44;5512858;25;20229;-65
2024/05/07 03:02:45;;;;;;;5.93;2.55;;;;;;;9.99;100.00;97158.25;5512832;25;20629;-65
2024/05/07 03:05:11;;;;;;;5.90;2.63;;;;;;;9.95;100.00;97161.91;5545808;25;20256;-65
2024/05/07 03:07:36;;;;;;;6.30;2.67;;;;;;;9.88;100.00;97151.88;5512989;25;20220;-65
2024/05/07 03:10:03;;;;;;;8.30;3.13;;;;;;;9.85;100.00;97155.44;5512754;25;20715;-65
2024/05/07 03:12:28;;;;;;;5.82;2.50;;;;;;;9.76;100.00;97151.50;5512786;25;20217;-66
2024/05/07 03:14:54;;;;;;;7.80;2.80;;;;;;;9.74;100.00;97158.50;5512703;25;20255;-66
2024/05/07 03:17:20;;;;;;;6.87;2.87;;;;;;;9.69;100.00;97160.44;5512591;25;20256;-66
2024/05/07 03:21:45;;;;;;;6.90;2.67;;;;;;;9.14;100.00;97176.63;5583039;25;20526;-66
2024/05/07 03:24:11;;;;;;;6.67;2.80;;;;;;;8.89;100.00;97184.56;5545739;25;20324;-66
2024/05/07 03:26:38;;;;;;;5.73;2.53;;;;;;;8.86;100.00;97189.03;5544025;25;20232;-66
2024/05/07 03:29:03;;;;;;;6.60;2.70;;;;;;;8.95;100.00;97192.09;5543973;25;20256;-66
2024/05/07 03:31:30;;;;;;;6.00;2.60;;;;;;;8.92;100.00;97183.63;5545624;25;20585;-66
2024/05/07 03:33:57;;;;;;;7.53;2.50;;;;;;;8.80;100.00;97184.94;5543686;25;20576;-66
2024/05/07 03:36:27;;;;;;;7.13;2.75;;;;;;;8.84;100.00;97183.91;5545392;25;20645;-66
2024/05/07 03:38:53;;;;;;;6.50;2.63;;;;;;;8.86;100.00;97195.06;5545558;25;20218;-66
2024/05/07 03:41:18;;;;;;;5.87;2.70;;;;;;;8.65;100.00;97187.25;5543713;25;20225;-66
2024/05/07 03:45:43;;;;;;;5.90;2.80;;;;;;;8.50;100.00;97203.38;5582923;25;20535;-66
2024/05/07 03:48:10;;;;;;;7.10;2.63;;;;;;;8.33;100.00;97204.00;5545749;25;20217;-66
2024/05/07 03:50:35;;;;;;;6.40;2.90;;;;;;;8.33;100.00;97205.72;5545746;25;20747;-66
2024/05/07 03:53:01;;;;;;;6.47;2.60;;;;;;;8.18;100.00;97212.34;5543801;25;20217;-66
2024/05/07 03:55:26;;;;;;;6.23;2.77;;;;;;;8.04;100.00;97225.75;5545519;25;20321;-66
2024/05/07 03:57:52;;;;;;;6.47;3.20;;;;;;;8.03;100.00;97227.50;5543788;25;20217;-66
2024/05/07 04:00:18;;;;;;;6.60;2.77;;;;;;;8.08;100.00;97222.19;5543676;25;20278;-66
2024/05/07 04:02:43;;;;;;;6.00;2.70;;;;;;;8.21;100.00;97222.56;5545495;25;20217;-66
2024/05/07 04:05:09;;;;;;;6.87;2.80;;;;;;;8.32;100.00;97220.41;5543646;25;20585;-66
2024/05/07 04:09:43;;;;;;;6.95;3.25;;;;;;;8.42;100.00;97223.53;5621118;25;20635;-66
2024/05/07 04:12:08;;;;;;;6.88;2.78;;;;;;;8.44;100.00;97213.94;5583402;25;20220;-66
2024/05/07 04:14:34;;;;;;;6.60;2.90;;;;;;;8.45;100.00;97219.06;5519242;25;20643;-66
2024/05/07 04:16:59;;;;;;;6.00;2.80;;;;;;;8.38;100.00;97221.94;5583204;25;20257;-66
2024/05/07 04:19:29;;;;;;;7.10;2.90;;;;;;;8.16;100.00;97221.91;5549946;25;20216;-66
2024/05/07 04:21:54;;;;;;;7.78;2.80;;;;;;;8.08;100.00;97229.94;5549812;25;20311;-66
2024/05/07 04:24:20;;;;;;;6.50;2.73;;;;;;;8.04;100.00;97236.97;5582999;25;20699;-66
2024/05/07 04:26:49;;;;;;;6.83;2.80;;;;;;;8.15;100.00;97238.31;5583109;25;20289;-66
2024/05/07 04:29:14;;;;;;;6.20;2.70;;;;;;;8.23;100.00;97241.47;5549871;25;20271;-66
2024/05/07 04:33:36;;;;;;;6.37;2.93;;;;;;;8.21;100.00;97235.50;5492986;25;1353822;-66
2024/05/07 04:36:03;;;;;;;6.60;2.93;;;;;;;7.99;100.00;97253.56;5506738;26;20217;-66
2024/05/07 04:38:28;;;;;;;7.35;2.95;;;;;;;8.02;100.00;97258.59;5506852;26;20229;-66
2024/05/07 04:40:54;;;;;;;6.50;2.93;;;;;;;8.11;100.00;97267.78;5508492;26;20219;-66
2024/05/07 04:43:20;;;;;;;6.50;2.67;;;;;;;8.22;100.00;97252.69;5506689;26;20226;-66
2024/05/07 04:45:45;;;;;;;6.20;2.90;;;;;;;8.27;100.00;97254.22;5508314;26;20690;-66
2024/05/07 04:48:11;;;;;;;6.60;2.93;;;;;;;8.29;100.00;97255.91;5506862;26;20230;-66
2024/05/07 04:50:37;;;;;;;8.03;3.10;;;;;;;8.38;100.00;97247.81;5508393;26;20736;-66
2024/05/07 04:53:03;;;;;;;6.60;3.10;;;;;;;8.40;100.00;97254.63;5508208;25;20222;-66
2024/05/07 04:57:37;;;;;;;6.60;2.90;;;;;;;8.32;100.00;97245.47;5583083;25;20319;-66
2024/05/07 05:00:03;;;;;;;6.77;3.20;;;;;;;8.36;100.00;97253.03;5545687;25;20209;-66
2024/05/07 05:02:29;;;;;;;6.50;3.33;;;;;;;8.42;100.00;97252.84;5543851;25;20217;-66
2024/05/07 05:04:54;;;;;;;7.67;3.27;;;;;;;8.45;100.00;97257.88;5543840;25;20217;-66
2024/05/07 05:07:20;;;;;;;6.57;3.20;;;;;;;8.56;100.00;97267.84;5543899;25;20699;-66
2024/05/07 05:09:45;;;;;;;6.87;3.47;;;;;;;8.65;100.00;97267.47;5543706;25;20217;-65
2024/05/07 05:12:11;;;;;;;7.17;3.27;;;;;;;8.77;100.00;97267.94;5543911;25;20244;-65
2024/05/07 05:14:36;;;;;;;8.80;4.07;;;;;;;8.82;100.00;97260.81;5543779;25;20300;-65
2024/05/07 05:17:02;;;;;;;6.80;3.10;;;;;;;8.91;100.00;97264.78;5545434;25;20213;-65
2024/05/07 05:21:35;;;;;;;7.90;4.60;;;;;;;8.94;100.00;97255.16;5583045;25;20540;-65
2024/05/07 05:24:00;;;;;;;7.40;3.63;;;;;;;9.00;100.00;97264.41;5543837;25;20304;-65
2024/05/07 05:26:26;;;;;;;7.20;4.07;;;;;;;9.01;100.00;97261.78;5543900;25;20677;-65
2024/05/07 05:28:52;;;;;;;7.50;3.80;;;;;;;8.93;100.00;97273.34;5543776;25;20230;-65
2024/05/07 05:31:20;;;;;;;8.43;4.43;;;;;;;8.95;100.00;97274.97;5543842;25;20217;-65
2024/05/07 05:33:46;;;;;;;8.13;4.63;;;;;;;8.90;100.00;97286.44;5545878;25;20422;-66
2024/05/07 05:36:12;;;;;;;8.32;4.40;;;;;;;9.06;100.00;97295.28;5543783;25;20620;-65
2024/05/07 05:38:38;;;;;;;7.07;4.20;;;;;;;9.21;100.00;97294.66;5545351;25;20222;-65
2024/05/07 05:41:03;;;;;;;8.80;4.30;;;;;;;9.29;100.00;97296.94;5543656;25;20715;-65
2024/05/07 05:45:32;;;;;;;8.40;4.07;;;;;;;9.59;100.00;97289.66;5582738;25;20782;-66
2024/05/07 05:47:58;;;;;;;7.60;4.30;;;;;;;9.80;100.00;97294.84;5512947;25;20229;-66
2024/05/07 05:50:23;;;;;;;8.23;4.03;;;;;;;9.95;100.00;97286.41;5512832;25;20591;-66
2024/05/07 05:52:49;;;;;;;8.07;3.83;;;;;;;10.01;100.00;97276.69;5512890;25;20217;-66
2024/05/07 05:55:14;;;;;;;7.63;4.30;;;;;;;10.14;100.00;97283.00;5513015;25;20229;-66
2024/05/07 05:57:40;;;;;;;7.47;4.30;;;;;;;10.28;100.00;97283.25;5512730;25;20264;-66
2024/05/07 06:00:06;;;;;;;8.20;4.70;;;;;;;10.45;100.00;97284.25;5545388;25;20325;-65
2024/05/07 06:02:32;;;;;;;9.27;4.50;;;;;;;10.53;100.00;97282.16;5512721;25;20226;-66
2024/05/07 06:04:58;;;;;;;7.33;4.03;;;;;;;10.68;100.00;97283.22;5512580;25;20245;-66
2024/05/07 06:09:31;;;;;;;7.15;3.42;;;;;;;10.44;100.00;97257.47;5582893;25;20379;-66
2024/05/07 06:11:56;;;;;;;7.10;3.27;;;;;;;10.62;100.00;97253.16;5543911;25;20229;-65
2024/05/07 06:14:22;;;;;;;6.33;3.13;;;;;;;10.89;100.00;97263.19;5543781;25;20601;-66
2024/05/07 06:16:47;;;;;;;6.50;3.47;;;;;;;10.99;100.00;97253.16;5545752;25;20312;-65
2024/05/07 06:19:13;;;;;;;7.20;3.60;;;;;;;11.07;100.00;97249.28;5545700;25;20712;-66
2024/05/07 06:21:38;;;;;;;7.23;3.33;;;;;;;10.99;100.00;97234.97;5545603;25;20682;-66
2024/05/07 06:24:04;;;;;;;6.53;3.17;;;;;;;11.14;100.00;97239.47;5545450;25;20213;-65
2024/05/07 06:26:30;;;;;;;7.33;3.13;;;;;;;11.36;100.00;97251.41;5543788;25;20213;-65
2024/05/07 06:28:55;;;;;;;7.20;3.53;;;;;;;11.60;100.00;97242.34;5543664;25;20221;-66
2024/05/07 06:33:29;;;;;;;7.13;3.25;;;;;;;11.40;100.00;97245.97;5582971;25;20310;-66
2024/05/07 06:35:54;;;;;;;7.10;3.30;;;;;;;11.68;100.00;97248.03;5543925;25;20309;-66
2024/05/07 06:38:20;;;;;;;6.00;2.93;;;;;;;11.76;100.00;97234.63;5545896;25;20317;-66
2024/05/07 06:40:45;;;;;;;6.83;3.20;;;;;;;11.76;100.00;97237.22;5545836;25;20317;-66
2024/05/07 06:43:11;;;;;;;6.13;2.93;;;;;;;11.92;100.00;97236.47;5543747;25;20228;-66
2024/05/07 06:45:36;;;;;;;10.43;3.07;;;;;;;12.11;100.00;97229.38;5545493;25;20255;-66
2024/05/07 06:48:02;;;;;;;6.37;2.93;;;;;;;12.21;100.00;97230.56;5545434;25;20319;-67
2024/05/07 06:50:29;;;;;;;7.40;3.05;;;;;;;12.05;100.00;97232.31;5543284;25;20584;-66
2024/05/07 06:52:54;;;;;;;6.00;2.70;;;;;;;11.88;100.00;97227.97;5543675;25;20224;-67
2024/05/07 06:57:28;;;;;;;6.03;2.65;;;;;;;12.23;100.00;97236.53;5364392;26;20642;-67
2024/05/07 06:59:54;;;;;;;6.73;3.13;;;;;;;12.35;100.00;97240.25;5364983;26;20580;-66
2024/05/07 07:02:20;;;;;;;6.30;2.97;;;;;;;12.46;100.00;97240.50;5364876;26;20324;-67
2024/05/07 07:04:45;;;;;;;10.13;2.90;;;;;;;12.49;100.00;97240.31;5363016;26;20460;-67
2024/05/07 07:07:11;;;;;;;6.90;2.90;;;;;;;12.58;100.00;97239.00;5362985;26;20648;-67
2024/05/07 07:09:37;;;;;;;5.70;2.60;;;;;;;12.69;100.00;97241.00;5362993;26;20257;-67
2024/05/07 07:12:03;;;;;;;7.30;3.07;;;;;;;12.70;100.00;97234.88;5363005;26;20678;-66
2024/05/07 07:14:29;;;;;;;6.90;2.80;;;;;;;12.76;100.00;97234.53;5364650;26;20229;-66
2024/05/07 07:16:55;;;;;;;7.15;2.70;;;;;;;12.88;100.00;97238.25;5364498;26;20698;-66
2024/05/07 07:21:24;;;;;;;6.40;2.65;;;;;;;12.94;100.00;97226.63;5582904;25;20976;-67
2024/05/07 07:23:50;;;;;;;6.30;2.80;;;;;;;13.06;100.00;97233.72;5544137;25;20229;-66
2024/05/07 07:26:15;;;;;;;6.67;3.00;;;;;;;13.12;100.00;97229.97;5545610;25;20305;-66
2024/05/07 07:28:41;;;;;;;6.30;2.97;;;;;;;13.22;100.00;97233.69;5543701;25;20237;-66
2024/05/07 07:31:06;;;;;;;6.07;2.73;;;;;;;13.54;100.00;97231.88;5543812;25;20273;-67
2024/05/07 07:33:32;;;;;;;6.90;3.00;;;;;;;13.51;100.00;97229.44;5543788;25;20281;-67
2024/05/07 07:35:57;;;;;;;5.50;2.37;;;;;;;13.62;100.00;97228.81;5545480;25;20217;-67
2024/05/07 07:38:23;;;;;;;6.70;2.80;;;;;;;13.82;100.00;97232.84;5545624;25;20225;-68
2024/05/07 07:40:48;;;;;;;7.40;3.10;;;;;;;13.65;100.00;97215.59;5545514;25;20221;-67
2024/05/07 07:45:22;;;;;;;7.00;3.00;;;;;;;13.69;100.00;97219.69;5582971;25;20754;-67
2024/05/07 07:47:48;;;;;;;6.70;2.80;;;;;;;13.71;100.00;97228.25;5545530;25;20329;-68
2024/05/07 07:50:13;;;;;;;6.93;2.90;;;;;;;13.98;100.00;97227.56;5545702;25;20655;-67
2024/05/07 07:52:39;;;;;;;11.77;3.27;;;;;;;13.61;100.00;97227.16;5545495;25;20666;-67
2024/05/07 07:55:05;;;;;;;6.28;2.65;;;;;;;13.62;100.00;97227.06;5545672;25;20264;-67
2024/05/07 07:57:32;;;;;;;6.30;2.80;;;;;;;13.52;100.00;97225.91;5545422;25;20219;-67
2024/05/07 07:59:58;;;;;;;6.80;2.90;;;;;;;13.84;100.00;97228.38;5545534;25;20230;-67
2024/05/07 08:02:24;;;;;;;6.23;3.00;;;;;;;13.92;100.00;97227.94;5512908;25;20221;-67
2024/05/07 08:04:49;;;;;;;5.80;2.60;;;;;;;14.05;100.00;97228.03;5545491;25;20257;-67
2024/05/07 08:09:20;;;;;;;5.95;2.80;;;;;;;14.28;100.00;97230.06;5545002;25;20595;-68
2024/05/07 08:11:45;;;;;;;6.30;2.90;;;;;;;14.42;100.00;97229.19;5476415;26;20609;-67
2024/05/07 08:14:11;;;;;;;6.87;3.00;;;;;;;14.32;100.00;97221.09;5476467;26;20223;-67
2024/05/07 08:16:36;;;;;;;7.10;2.80;;;;;;;14.49;100.00;97235.72;5476497;26;20250;-67
2024/05/07 08:19:02;;;;;;;6.67;2.97;;;;;;;14.48;100.00;97230.59;5476575;26;20262;-67
2024/05/07 08:21:28;;;;;;;6.33;2.80;;;;;;;14.54;100.00;97231.06;5508689;26;20219;-67
2024/05/07 08:23:53;;;;;;;8.40;3.10;;;;;;;14.43;100.00;97233.50;5508853;26;20221;-67
2024/05/07 08:26:19;;;;;;;8.97;3.30;;;;;;;14.16;100.00;97234.25;5476323;26;20313;-66
2024/05/07 08:28:45;;;;;;;6.30;3.10;;;;;;;14.41;100.00;97237.97;5476221;26;20226;-67
2024/05/07 08:33:19;;;;;;;6.70;2.97;;;;;;;14.57;100.00;97224.78;5582992;25;20646;-67
2024/05/07 08:35:45;;;;;;;7.50;2.80;;;;;;;14.51;100.00;97228.63;5544009;25;20234;-67
2024/05/07 08:38:13;;;;;;;7.07;2.70;;;;;;;14.43;100.00;97243.94;5545729;25;20318;-67
2024/05/07 08:40:39;;;;;;;5.90;2.70;;;;;;;14.11;100.00;97233.69;5543935;25;20224;-67
2024/05/07 08:43:06;;;;;;;6.95;2.80;;;;;;;14.26;100.00;97236.31;5545570;25;20250;-68
2024/05/07 08:45:35;;;;;;;7.00;2.88;;;;;;;14.46;100.00;97243.78;5543719;25;20219;-68
2024/05/07 08:48:07;;;;;;;7.00;2.70;;;;;;;14.47;100.00;97237.59;5543647;25;20221;-67
2024/05/07 08:50:34;;;;;;;9.25;3.28;;;;;;;14.76;100.00;97243.63;5543681;25;20255;-68
2024/05/07 08:53:01;;;;;;;7.75;2.83;;;;;;;14.75;100.00;97244.59;5543713;25;20240;-67
2024/05/07 08:57:21;;;;;;;6.55;3.00;;;;;;;13.83;100.00;97240.59;5545386;25;20563;-68
2024/05/07 08:59:49;;;;;;;6.65;2.90;;;;;;;13.79;100.00;97248.72;5508408;26;20217;-68
2024/05/07 09:02:16;;;;;;;6.82;3.00;;;;;;;13.80;100.00;97250.38;5476099;26;20225;-67
2024/05/07 09:04:42;;;;;;;7.70;2.88;;;;;;;13.91;100.00;97252.34;5508635;26;20303;-68
2024/05/07 09:07:08;;;;;;;7.77;2.90;;;;;;;13.95;100.00;97243.38;5508360;26;20724;-68
2024/05/07 09:09:33;;;;;;;8.20;2.90;;;;;;;14.26;100.00;97246.75;5476135;26;20225;-68
2024/05/07 09:12:00;;;;;;;5.90;2.93;;;;;;;14.15;100.00;97250.88;5508294;26;20256;-68
2024/05/07 09:14:26;;;;;;;6.40;2.95;;;;;;;14.13;100.00;97247.50;5476121;26;20217;-68
2024/05/07 09:16:52;;;;;;;7.73;3.20;;;;;;;14.04;100.00;97253.28;5475912;26;20313;-69
2024/05/07 09:21:12;;;;;;;6.30;2.95;;;;;;;14.39;100.00;97250.31;5583038;25;20406;-68
2024/05/07 09:23:38;;;;;;;7.47;2.50;;;;;;;14.76;100.00;97246.25;5543898;25;20612;-68
2024/05/07 09:26:06;;;;;;;5.90;2.50;;;;;;;15.34;100.00;97252.13;5543767;25;20223;-67
2024/05/07 09:28:32;;;;;;;6.05;3.00;;;;;;;15.59;100.00;97245.25;5545717;25;20553;-68
2024/05/07 09:31:05;;;;;;;6.28;2.83;;;;;;;15.81;100.00;97249.94;5545818;25;20260;-68
2024/05/07 09:33:34;;;;;;;6.90;2.80;;;;;;;15.52;100.00;97250.06;5545676;25;20226;-68
2024/05/07 09:36:08;;;;;;;6.87;3.57;;;;;;;15.11;100.00;97247.53;5543721;25;20949;-68
2024/05/07 09:38:35;;;;;;;10.43;3.13;;;;;;;14.72;100.00;97254.41;5543742;25;20481;-68
2024/05/07 09:41:05;;;;;;;6.97;2.70;;;;;;;14.59;100.00;97256.94;5543523;25;20450;-68
2024/05/07 09:45:17;;;;;;;6.25;2.85;;;;;;;14.82;100.00;97250.25;5583024;25;20319;-68
2024/05/07 09:47:44;;;;;;;6.50;2.70;;;;;;;14.38;100.00;97259.06;5543970;25;20225;-68
2024/05/07 09:50:11;;;;;;;8.38;3.00;;;;;;;14.02;100.00;97260.38;5543912;25;20486;-68
2024/05/07 09:52:37;;;;;;;5.90;2.80;;;;;;;14.18;100.00;97266.34;5545716;25;20229;-68
2024/05/07 09:55:06;;;;;;;7.03;2.90;;;;;;;14.15;100.00;97260.47;5543666;25;20281;-68
2024/05/07 09:57:34;;;;;;;6.18;3.20;;;;;;;14.17;100.00;97261.19;5543697;25;20660;-68
2024/05/07 10:00:01;;;;;;;5.85;2.78;;;;;;;14.37;100.00;97257.38;5545744;25;20220;-68
2024/05/07 10:02:27;;;;;;;5.97;2.83;;;;;;;14.69;100.00;97259.81;5545527;25;20580;-68
2024/05/07 10:04:53;;;;;;;6.60;2.67;;;;;;;14.71;100.00;97263.16;5543670;25;20253;-68
2024/05/07 10:09:17;;;;;;;6.20;3.00;;;;;;;14.92;100.00;97267.03;5582786;25;21141;-68
2024/05/07 10:11:47;;;;;;;6.60;2.80;;;;;;;15.19;100.00;97266.22;5543605;25;20265;-68
2024/05/07 10:14:14;;;;;;;6.20;2.80;;;;;;;15.01;100.00;97251.69;5543918;25;20261;-68
2024/05/07 10:16:44;;;;;;;6.55;2.83;;;;;;;15.46;100.00;97254.84;5545637;25;20228;-68
2024/05/07 10:19:14;;;;;;;6.30;2.90;;;;;;;15.56;100.00;97261.16;5545719;25;20273;-68
2024/05/07 10:21:49;;;;;;;6.03;2.80;;;;;;;15.15;100.00;97262.09;5545638;25;20225;-68
2024/05/07 10:24:20;;;;;;;7.40;3.10;;;;;;;15.35;100.00;97259.03;5545547;25;20497;-68
2024/05/07 10:26:49;;;;;;;7.23;3.50;;;;;;;15.24;100.00;97253.63;5545608;25;20217;-69
2024/05/07 10:29:16;;;;;;;7.60;2.75;;;;;;;15.10;100.00;97261.56;5545390;25;20444;-69
2024/05/07 10:33:05;;;;;;;6.70;2.88;;;;;;;15.10;100.00;97266.81;5582748;25;20534;-68
2024/05/07 10:35:30;;;;;;;6.47;3.20;;;;;;;15.05;100.00;97267.09;5543854;25;20225;-69
2024/05/07 10:37:57;;;;;;;6.83;3.13;;;;;;;14.52;100.00;97264.28;5545604;25;20255;-69
2024/05/07 10:40:25;;;;;;;6.70;3.10;;;;;;;14.45;100.00;97267.38;5543832;25;20218;-68
2024/05/07 10:42:51;;;;;;;6.50;3.60;;;;;;;14.34;100.00;97265.41;5543740;25;20251;-69
2024/05/07 10:45:18;;;;;;;6.70;3.20;;;;;;;14.39;100.00;97265.97;5543749;25;20215;-69
2024/05/07 10:47:44;;;;;;;6.33;3.30;;;;;;;14.23;100.00;97268.69;5543776;25;20450;-72
2024/05/07 10:50:10;;;;;;;7.07;3.13;;;;;;;14.42;100.00;97257.09;5545496;25;20502;-69
2024/05/07 10:52:35;;;;;;;6.50;2.90;;;;;;;14.69;100.00;97267.66;5545339;25;20910;-68
2024/05/07 10:57:01;;;;;;;6.80;3.30;;;;;;;15.37;100.00;97266.75;5583292;25;20350;-69
2024/05/07 10:59:26;;;;;;;8.73;3.97;;;;;;;15.52;100.00;97259.69;5544051;25;21081;-70
2024/05/07 11:01:53;;;;;;;6.87;3.10;;;;;;;15.46;100.00;97270.56;5543819;25;20544;-69
2024/05/07 11:04:19;;;;;;;6.40;3.07;;;;;;;15.43;100.00;97261.13;5543889;25;20229;-73
2024/05/07 11:06:44;;;;;;;7.27;3.43;;;;;;;15.20;100.00;97270.47;5543757;25;20552;-72
2024/05/07 11:09:20;;;;;;;7.30;3.53;;;;;;;15.05;100.00;97276.72;5543751;25;20434;-74
2024/05/07 11:11:47;;;;;;;6.33;3.07;;;;;;;15.19;100.00;97275.81;5543850;25;20228;-74
2024/05/07 11:14:13;;;;;;;6.20;3.00;;;;;;;15.11;100.00;97276.31;5543780;25;20451;-69
2024/05/07 11:16:39;;;;;;;6.13;3.23;;;;;;;15.56;100.00;97274.25;5543512;25;20945;-69
2024/05/07 11:21:09;;;;;;;6.75;3.20;;;;;;;16.10;100.00;97274.13;5545381;25;20312;-72
2024/05/07 11:23:37;;;;;;;6.70;3.30;;;;;;;16.37;100.00;97267.09;5507080;26;20237;-70
2024/05/07 11:26:04;;;;;;;7.03;3.47;;;;;;;16.54;100.00;97274.63;5506929;26;20500;-71
2024/05/07 11:28:30;;;;;;;7.63;3.20;;;;;;;16.22;100.00;97266.38;5506653;26;20496;-69
2024/05/07 11:30:56;;;;;;;6.97;3.10;;;;;;;16.44;100.00;97268.34;5506614;26;20514;-69
2024/05/07 11:33:23;;;;;;;7.60;3.70;;;;;;;15.86;100.00;97274.03;5508398;26;20223;-71
2024/05/07 11:35:50;;;;;;;6.67;3.70;;;;;;;15.62;100.00;97270.38;5508348;25;20278;-71
2024/05/07 11:38:16;;;;;;;6.20;3.37;;;;;;;15.19;100.00;97266.22;5506532;26;20444;-71
2024/05/07 11:40:42;;;;;;;6.63;3.80;;;;;;;15.13;100.00;97264.84;5506372;26;20515;-72
2024/05/07 11:44:54;;;;;;;7.30;3.70;;;;;;;14.69;100.00;97267.66;5582792;25;20448;-73
2024/05/07 11:47:20;;;;;;;8.03;3.50;;;;;;;14.53;100.00;97270.34;5512907;25;20441;-70
2024/05/07 11:49:45;;;;;;;7.60;3.60;;;;;;;14.46;100.00;97275.13;5512872;25;20220;-73
2024/05/07 11:52:11;;;;;;;7.80;3.70;;;;;;;14.21;100.00;97271.38;5513281;25;20216;-72
2024/05/07 11:54:37;;;;;;;6.85;3.25;;;;;;;14.25;100.00;97276.44;5513167;25;20305;-72
2024/05/07 11:57:02;;;;;;;7.20;3.77;;;;;;;14.20;100.00;97281.91;5513096;25;20546;-73
2024/05/07 11:59:28;;;;;;;8.63;3.80;;;;;;;14.04;100.00;97279.38;5545589;25;20221;-73
2024/05/07 12:01:54;;;;;;;8.20;3.83;;;;;;;14.16;100.00;97286.50;5545399;25;20271;-74
2024/05/07 12:04:19;;;;;;;7.50;3.67;;;;;;;14.09;100.00;97286.97;5545323;25;20697;-72
2024/05/07 12:08:54;;;;;;;6.82;3.80;;;;;;;14.00;100.00;97294.41;5582940;25;20537;-74
2024/05/07 12:11:21;;;;;;;7.20;3.90;;;;;;;14.06;100.00;97293.22;5545983;25;20258;-72
2024/05/07 12:13:47;;;;;;;9.05;4.57;;;;;;;13.92;100.00;97295.81;5543784;25;20322;-71
2024/05/07 12:16:13;;;;;;;7.57;3.97;;;;;;;14.11;100.00;97296.38;5543973;25;20233;-70
2024/05/07 12:18:38;;;;;;;7.77;4.33;;;;;;;14.11;100.00;97300.75;5545507;25;20538;-71
2024/05/07 12:21:07;;;;;;;7.47;3.80;;;;;;;14.31;100.00;97307.41;5545808;25;20216;-72
2024/05/07 12:26:17;;;;;;;7.97;4.40;;;;;;;14.16;100.00;97298.72;5545817;25;20260;-70